createdAt,value
2023-02-13T00:00:46.521Z,17.58
2023-02-13T00:03:13.451Z,17.17
2023-02-13T00:05:40.183Z,17.77
2023-02-13T00:08:06.935Z,17.52
2023-02-13T00:10:33.635Z,17.20
2023-02-13T00:13:00.405Z,18.13
2023-02-13T00:15:27.114Z,18.70
2023-02-13T00:17:53.763Z,19.02
2023-02-13T00:20:20.564Z,19.10
2023-02-13T00:22:47.213Z,17.70
2023-02-13T00:25:13.990Z,17.98
2023-02-13T00:27:40.652Z,19.08
2023-02-13T00:30:07.965Z,20.77
2023-02-13T00:32:34.604Z,19.23
2023-02-13T00:35:01.231Z,19.95
2023-02-13T00:37:27.885Z,18.73
2023-02-13T00:39:54.509Z,19.45
2023-02-13T00:42:24.006Z,19.15
2023-02-13T00:44:50.728Z,19.67
2023-02-13T00:47:17.347Z,19.00
2023-02-13T00:49:44.006Z,18.45
2023-02-13T00:52:10.878Z,18.73
2023-02-13T00:54:37.526Z,19.55
2023-02-13T00:57:04.420Z,20.33
2023-02-13T00:59:31.079Z,20.40
2023-02-13T01:01:57.778Z,20.70
2023-02-13T01:04:24.550Z,23.45
2023-02-13T01:06:51.316Z,22.88
2023-02-13T01:09:17.943Z,22.05
2023-02-13T01:14:28.010Z,23.25
2023-02-13T01:17:14.164Z,22.38
2023-02-13T01:19:41.435Z,23.25
2023-02-13T01:22:08.901Z,23.58
2023-02-13T01:24:35.534Z,23.92
2023-02-13T01:27:02.417Z,23.83
2023-02-13T01:29:42.384Z,25.70
2023-02-13T01:32:09.122Z,24.85
2023-02-13T01:34:35.892Z,24.13
2023-02-13T01:37:07.046Z,25.45
2023-02-13T01:39:33.690Z,23.65
2023-02-13T01:42:00.377Z,24.67
2023-02-13T01:44:54.127Z,24.67
2023-02-13T01:47:29.354Z,22.65
2023-02-13T01:50:11.065Z,23.90
2023-02-13T01:52:41.597Z,16.60
2023-02-13T01:55:10.882Z,21.95
2023-02-13T01:57:40.845Z,22.00
2023-02-13T02:00:13.756Z,22.45
2023-02-13T02:02:47.668Z,23.00
2023-02-13T02:05:16.958Z,19.70
2023-02-13T02:07:44.391Z,19.23
2023-02-13T02:10:18.421Z,19.55
2023-02-13T02:13:11.918Z,20.23
2023-02-13T02:15:38.758Z,17.25
2023-02-13T02:18:23.247Z,17.42
2023-02-13T02:21:15.670Z,18.77
2023-02-13T02:24:40.546Z,15.18
2023-02-13T02:27:10.046Z,15.60
2023-02-13T02:29:49.062Z,15.40
2023-02-13T02:32:24.776Z,15.45
2023-02-13T02:35:14.228Z,15.25
2023-02-13T02:37:53.956Z,14.45
2023-02-13T02:40:46.740Z,13.75
2023-02-13T02:43:29.948Z,15.15
2023-02-13T02:46:22.870Z,14.60
2023-02-13T02:49:15.366Z,13.70
2023-02-13T02:52:01.104Z,12.77
2023-02-13T02:54:53.304Z,14.70
2023-02-13T02:57:49.906Z,14.68
2023-02-13T03:00:41.762Z,13.15
2023-02-13T03:03:42.168Z,13.20
2023-02-13T03:06:45.417Z,12.80
2023-02-13T03:09:56.389Z,12.90
2023-02-13T03:12:44.622Z,10.63
2023-02-13T03:15:11.511Z,11.57
2023-02-13T03:17:57.073Z,10.43
2023-02-13T03:21:01.492Z,10.32
2023-02-13T03:23:52.792Z,9.57
2023-02-13T03:26:45.536Z,11.57
2023-02-13T03:29:45.895Z,10.43
2023-02-13T03:32:18.655Z,9.25
2023-02-13T03:35:13.001Z,9.07
2023-02-13T03:37:55.560Z,10.07
2023-02-13T03:40:59.384Z,8.70
2023-02-13T03:43:37.244Z,8.13
2023-02-13T03:46:04.911Z,7.30
2023-02-13T03:48:55.979Z,8.55
2023-02-13T03:51:32.829Z,8.65
2023-02-13T03:54:05.148Z,7.85
2023-02-13T03:59:29.115Z,8.15
2023-02-13T04:02:31.136Z,9.60
2023-02-13T04:05:32.335Z,7.68
2023-02-13T04:08:08.611Z,7.32
2023-02-13T04:10:39.527Z,6.45
2023-02-13T04:13:22.885Z,6.53
2023-02-13T04:16:13.468Z,6.90
2023-02-13T04:18:40.656Z,6.55
2023-02-13T04:21:22.852Z,6.60
2023-02-13T04:24:06.731Z,6.15
2023-02-13T04:26:37.281Z,7.18
2023-02-13T04:29:41.900Z,6.80
2023-02-13T04:32:10.702Z,5.75
2023-02-13T04:34:37.849Z,5.95
2023-02-13T04:37:21.420Z,6.47
2023-02-13T04:39:48.027Z,5.57
2023-02-13T04:42:14.656Z,6.32
2023-02-13T04:44:41.257Z,5.35
2023-02-13T04:47:07.964Z,6.65
2023-02-13T04:49:40.468Z,5.93
2023-02-13T04:52:07.066Z,5.82
2023-02-13T04:54:33.700Z,6.13
2023-02-13T04:57:07.854Z,5.57
2023-02-13T04:59:34.488Z,6.10
2023-02-13T05:02:01.200Z,4.80
2023-02-13T05:04:28.854Z,5.43
2023-02-13T05:06:55.521Z,5.82
2023-02-13T05:09:22.360Z,5.25
2023-02-13T05:11:52.866Z,6.05
2023-02-13T05:14:19.981Z,5.22
2023-02-13T05:16:47.427Z,5.13
2023-02-13T05:19:21.174Z,5.47
2023-02-13T05:22:20.604Z,6.10
2023-02-13T05:24:47.250Z,5.97
2023-02-13T05:27:13.900Z,5.20
2023-02-13T05:29:53.821Z,5.72
2023-02-13T05:32:20.674Z,5.65
2023-02-13T05:34:47.414Z,5.47
2023-02-13T05:37:25.030Z,5.75
2023-02-13T05:39:51.676Z,5.97
2023-02-13T05:42:18.390Z,5.40
2023-02-13T05:44:45.025Z,5.75
2023-02-13T05:47:11.688Z,6.00
2023-02-13T05:49:47.882Z,5.85
2023-02-13T05:52:14.847Z,6.68
2023-02-13T05:54:41.540Z,6.60
2023-02-13T05:57:11.076Z,7.00
2023-02-13T05:59:37.792Z,7.47
2023-02-13T06:02:04.454Z,6.93
2023-02-13T06:04:46.617Z,7.20
2023-02-13T06:07:20.722Z,8.15
2023-02-13T06:09:47.401Z,7.78
2023-02-13T06:12:14.080Z,7.05
2023-02-13T06:14:40.803Z,8.32
2023-02-13T06:17:07.433Z,8.13
2023-02-13T06:19:34.061Z,8.32
2023-02-13T06:22:00.781Z,8.05
2023-02-13T06:24:34.633Z,9.07
2023-02-13T06:27:01.243Z,8.88
2023-02-13T06:29:27.954Z,7.97
2023-02-13T06:31:54.595Z,7.85
2023-02-13T06:34:21.255Z,8.20
2023-02-13T06:36:59.437Z,9.30
2023-02-13T06:39:32.170Z,9.40
2023-02-13T06:41:58.817Z,9.00
2023-02-13T06:44:25.464Z,9.88
2023-02-13T06:46:55.074Z,9.63
2023-02-13T06:49:29.563Z,11.65
2023-02-13T06:52:16.781Z,12.73
2023-02-13T06:54:47.593Z,8.65
2023-02-13T06:57:15.155Z,10.10
2023-02-13T06:59:49.607Z,11.18
2023-02-13T07:02:54.372Z,13.25
2023-02-13T07:05:21.159Z,12.50
2023-02-13T07:08:01.642Z,10.43
2023-02-13T07:10:28.410Z,10.20
2023-02-13T07:13:05.438Z,12.65
2023-02-13T07:15:34.024Z,10.93
2023-02-13T07:18:01.174Z,12.00
2023-02-13T07:20:41.589Z,14.35
2023-02-13T07:23:08.288Z,12.55
2023-02-13T07:25:35.113Z,13.05
2023-02-13T07:28:06.270Z,11.52
2023-02-13T07:30:34.259Z,13.48
2023-02-13T07:33:02.183Z,11.90
2023-02-13T07:35:29.447Z,14.65
2023-02-13T07:37:56.643Z,13.73
2023-02-13T07:40:23.536Z,10.75
2023-02-13T07:42:50.271Z,12.05
2023-02-13T07:45:17.110Z,10.57
2023-02-13T07:47:44.150Z,10.52
2023-02-13T07:50:11.374Z,11.90
2023-02-13T07:52:38.240Z,9.10
2023-02-13T07:55:05.728Z,8.48
2023-02-13T07:57:33.304Z,9.73
2023-02-13T08:00:00.107Z,9.95
2023-02-13T08:02:26.798Z,9.10
2023-02-13T08:04:53.546Z,10.68
2023-02-13T08:07:20.379Z,15.13
2023-02-13T08:10:06.015Z,8.68
2023-02-13T08:12:35.892Z,11.50
2023-02-13T08:15:03.268Z,11.02
2023-02-13T08:17:30.020Z,9.75
2023-02-13T08:19:57.054Z,12.77
2023-02-13T08:22:23.794Z,9.70
2023-02-13T08:24:50.624Z,12.02
2023-02-13T08:27:17.518Z,8.90
2023-02-13T08:29:44.366Z,8.35
2023-02-13T08:32:11.229Z,8.80
2023-02-13T08:34:37.915Z,8.70
2023-02-13T08:37:11.043Z,6.72
2023-02-13T08:39:37.687Z,10.20
2023-02-13T08:42:04.450Z,7.38
2023-02-13T08:44:31.445Z,9.52
2023-02-13T08:46:58.179Z,7.80
2023-02-13T08:49:25.054Z,8.52
2023-02-13T08:51:51.717Z,7.85
2023-02-13T08:54:32.242Z,6.85
2023-02-13T08:56:58.891Z,10.90
2023-02-13T08:59:25.680Z,9.02
2023-02-13T09:01:59.387Z,13.85
2023-02-13T09:04:26.140Z,13.90
2023-02-13T09:06:52.930Z,33.72
2023-02-13T09:09:19.775Z,11.50
2023-02-13T09:11:46.397Z,11.38
2023-02-13T09:14:20.337Z,8.48
2023-02-13T09:16:47.190Z,7.13
2023-02-13T09:19:13.923Z,7.00
2023-02-13T09:21:44.517Z,8.40
2023-02-13T09:24:11.349Z,8.52
2023-02-13T09:26:38.062Z,6.72
2023-02-13T09:29:04.931Z,10.57
2023-02-13T09:31:31.763Z,7.20
2023-02-13T09:34:11.340Z,10.88
2023-02-13T09:36:37.996Z,9.32
2023-02-13T09:39:04.640Z,10.95
2023-02-13T09:41:42.883Z,10.38
2023-02-13T09:44:38.278Z,12.00
2023-02-13T09:47:20.349Z,8.73
2023-02-13T09:49:54.419Z,11.75
2023-02-13T09:52:21.423Z,9.10
2023-02-13T09:54:48.167Z,7.68
2023-02-13T09:57:51.872Z,9.30
2023-02-13T10:00:44.398Z,6.60
2023-02-13T10:03:19.991Z,10.18
2023-02-13T10:06:12.556Z,9.50
2023-02-13T10:08:59.452Z,7.55
2023-02-13T10:11:41.201Z,6.80
2023-02-13T10:14:16.644Z,8.20
2023-02-13T10:16:49.791Z,6.82
2023-02-13T10:19:41.914Z,5.88
2023-02-13T10:22:18.045Z,13.25
2023-02-13T10:25:08.853Z,9.43
2023-02-13T10:27:40.134Z,8.63
2023-02-13T10:30:17.410Z,9.60
2023-02-13T10:33:21.481Z,9.38
2023-02-13T10:36:01.410Z,7.90
2023-02-13T10:38:32.231Z,6.65
2023-02-13T10:41:06.517Z,8.70
2023-02-13T10:43:47.285Z,8.65
2023-02-13T10:46:33.567Z,9.93
2023-02-13T10:49:28.712Z,9.60
2023-02-13T10:52:16.242Z,13.20
2023-02-13T10:55:11.474Z,13.07
2023-02-13T10:57:56.434Z,9.80
2023-02-13T11:00:27.887Z,9.07
2023-02-13T11:02:56.548Z,11.40
2023-02-13T11:05:26.520Z,9.45
2023-02-13T11:07:53.155Z,8.98
2023-02-13T11:10:25.414Z,13.95
2023-02-13T11:15:22.348Z,8.63
2023-02-13T11:17:51.138Z,8.60
2023-02-13T11:20:41.194Z,7.75
2023-02-13T11:23:47.431Z,8.95
2023-02-13T11:26:43.442Z,7.65
2023-02-13T11:29:20.983Z,7.65
2023-02-13T11:32:21.102Z,7.72
2023-02-13T11:34:51.092Z,8.50
2023-02-13T11:37:20.696Z,8.00
2023-02-13T11:39:51.297Z,7.50
2023-02-13T11:42:23.854Z,7.20
2023-02-13T11:44:55.006Z,7.70
2023-02-13T11:47:51.498Z,8.43
2023-02-13T11:50:27.338Z,18.05
2023-02-13T11:53:25.564Z,9.13
2023-02-13T11:56:03.119Z,7.53
2023-02-13T11:58:31.196Z,8.85
2023-02-13T12:01:19.664Z,8.85
2023-02-13T12:04:07.230Z,7.45
2023-02-13T12:06:39.811Z,7.88
2023-02-13T12:09:15.320Z,7.07
2023-02-13T12:12:12.148Z,6.10
2023-02-13T12:14:43.305Z,8.43
2023-02-13T12:17:32.568Z,6.72
2023-02-13T12:20:00.008Z,5.97
2023-02-13T12:22:58.659Z,6.30
2023-02-13T12:25:48.785Z,5.90
2023-02-13T12:28:17.299Z,5.43
2023-02-13T12:31:00.027Z,6.28
2023-02-13T12:33:49.654Z,5.95
2023-02-13T12:36:28.776Z,5.90
2023-02-13T12:39:18.860Z,6.22
2023-02-13T12:42:09.696Z,5.50
2023-02-13T12:44:42.312Z,5.45
2023-02-13T12:47:22.381Z,5.85
2023-02-13T12:50:23.211Z,5.90
2023-02-13T12:52:53.135Z,5.70
2023-02-13T12:55:25.887Z,7.00
2023-02-13T12:58:00.497Z,5.88
2023-02-13T13:00:41.855Z,7.18
2023-02-13T13:03:29.656Z,5.82
2023-02-13T13:06:19.795Z,5.78
2023-02-13T13:09:05.653Z,5.75
2023-02-13T13:11:47.675Z,6.60
2023-02-13T13:14:23.101Z,6.72
2023-02-13T13:17:08.390Z,6.03
2023-02-13T13:19:50.135Z,6.18
2023-02-13T13:22:30.390Z,7.38
2023-02-13T13:25:34.666Z,6.40
2023-02-13T13:28:23.975Z,6.25
2023-02-13T13:30:51.301Z,6.30
2023-02-13T13:33:20.764Z,6.85
2023-02-13T13:36:28.896Z,6.82
2023-02-13T13:39:26.619Z,7.18
2023-02-13T13:42:06.925Z,7.82
2023-02-13T13:44:51.609Z,8.07
2023-02-13T13:47:32.365Z,7.85
2023-02-13T13:50:01.051Z,7.00
2023-02-13T13:52:37.576Z,7.55
2023-02-13T13:55:05.267Z,7.72
2023-02-13T13:57:41.023Z,9.98
2023-02-13T14:00:14.009Z,25.15
2023-02-13T14:02:50.187Z,8.27
2023-02-13T14:05:32.861Z,7.32
2023-02-13T14:08:23.881Z,7.75
2023-02-13T14:10:50.534Z,8.23
2023-02-13T14:13:39.330Z,7.70
2023-02-13T14:16:12.332Z,7.40
2023-02-13T14:18:52.838Z,8.85
2023-02-13T14:21:26.289Z,7.43
2023-02-13T14:23:53.364Z,8.57
2023-02-13T14:26:33.946Z,7.85
2023-02-13T14:29:25.802Z,7.63
2023-02-13T14:31:58.100Z,7.95
2023-02-13T14:37:10.382Z,8.52
2023-02-13T14:39:37.732Z,7.78
2023-02-13T14:42:28.514Z,7.55
2023-02-13T14:45:10.670Z,7.88
2023-02-13T14:47:53.344Z,8.18
2023-02-13T14:50:31.860Z,8.18
2023-02-13T14:53:14.354Z,8.07
2023-02-13T14:58:36.723Z,8.48
2023-02-13T15:01:06.510Z,9.13
2023-02-13T15:03:48.607Z,7.63
2023-02-13T15:06:45.072Z,7.78
2023-02-13T15:09:20.887Z,7.45
2023-02-13T15:11:47.714Z,8.23
2023-02-13T15:14:35.983Z,7.93
2023-02-13T15:17:15.447Z,8.27
2023-02-13T15:19:52.275Z,7.78
2023-02-13T15:22:42.043Z,8.35
2023-02-13T15:25:09.319Z,7.32
2023-02-13T15:27:41.698Z,9.80
2023-02-13T15:30:26.901Z,8.75
2023-02-13T15:33:02.519Z,9.13
2023-02-13T15:35:32.003Z,7.97
2023-02-13T15:37:59.379Z,8.15
2023-02-13T15:40:32.028Z,8.10
2023-02-13T15:43:00.440Z,7.28
2023-02-13T15:45:29.452Z,8.40
2023-02-13T15:47:56.805Z,8.52
2023-02-13T15:50:35.873Z,8.10
2023-02-13T15:53:14.999Z,8.07
2023-02-13T15:55:41.665Z,7.80
2023-02-13T15:58:14.338Z,7.90
2023-02-13T16:00:43.102Z,8.13
2023-02-13T16:03:17.126Z,8.32
2023-02-13T16:05:46.486Z,7.18
2023-02-13T16:08:32.169Z,8.05
2023-02-13T16:11:38.704Z,6.95
2023-02-13T16:14:14.576Z,6.28
2023-02-13T16:16:57.887Z,6.75
2023-02-13T16:19:39.788Z,7.18
2023-02-13T16:22:35.755Z,6.00
2023-02-13T16:25:17.568Z,6.53
2023-02-13T16:27:55.315Z,6.45
2023-02-13T16:30:43.062Z,6.72
2023-02-13T16:33:12.596Z,5.75
2023-02-13T16:35:42.631Z,7.28
2023-02-13T16:38:29.306Z,106.30
2023-02-13T16:40:58.797Z,78.03
2023-02-13T16:43:34.638Z,43.13
2023-02-13T16:46:18.921Z,23.33
2023-02-13T16:48:56.422Z,13.70
2023-02-13T16:51:51.308Z,8.93
2023-02-13T16:54:17.999Z,7.47
2023-02-13T16:56:46.492Z,7.03
2023-02-13T16:59:53.388Z,6.10
2023-02-13T17:02:34.103Z,6.40
2023-02-13T17:05:09.910Z,6.18
2023-02-13T17:07:50.192Z,6.93
2023-02-13T17:10:28.921Z,6.88
2023-02-13T17:12:59.527Z,6.50
2023-02-13T17:15:28.596Z,7.35
2023-02-13T17:17:58.728Z,7.03
2023-02-13T17:20:31.059Z,7.80
2023-02-13T17:25:36.373Z,6.90
2023-02-13T17:28:14.331Z,7.50
2023-02-13T17:30:41.975Z,8.38
2023-02-13T17:33:26.206Z,7.45
2023-02-13T17:35:53.943Z,7.90
2023-02-13T17:38:21.106Z,7.45
2023-02-13T17:40:48.320Z,7.40
2023-02-13T17:43:17.369Z,12.63
2023-02-13T17:45:45.422Z,16.30
2023-02-13T17:48:12.187Z,12.10
2023-02-13T17:50:39.490Z,10.68
2023-02-13T17:53:08.627Z,10.00
2023-02-13T17:55:35.950Z,10.38
2023-02-13T17:58:02.842Z,11.55
2023-02-13T18:00:32.912Z,11.55
2023-02-13T18:03:00.597Z,13.02
2023-02-13T18:05:28.366Z,13.27
2023-02-13T18:07:55.699Z,13.13
2023-02-13T18:10:25.278Z,13.32
2023-02-13T18:12:53.796Z,13.68
2023-02-13T18:15:20.621Z,15.60
2023-02-13T18:17:47.766Z,17.02
2023-02-13T18:20:17.737Z,16.23
2023-02-13T18:22:44.533Z,15.90
2023-02-13T18:25:11.556Z,16.67
2023-02-13T18:27:38.268Z,17.42
2023-02-13T18:30:06.213Z,17.42
2023-02-13T18:32:32.868Z,16.75
2023-02-13T18:34:59.593Z,20.77
2023-02-13T18:37:29.342Z,20.00
2023-02-13T18:39:56.829Z,24.88
2023-02-13T18:42:23.654Z,18.33
2023-02-13T18:44:50.634Z,21.50
2023-02-13T18:47:17.547Z,22.95
2023-02-13T18:49:46.373Z,31.10
2023-02-13T18:52:13.064Z,68.45
2023-02-13T18:54:39.856Z,32.42
2023-02-13T18:57:06.895Z,16.67
2023-02-13T18:59:33.638Z,14.10
2023-02-13T19:02:02.087Z,13.77
2023-02-13T19:04:29.953Z,14.25
2023-02-13T19:06:56.882Z,13.07
2023-02-13T19:09:23.694Z,13.23
2023-02-13T19:11:51.608Z,12.90
2023-02-13T19:14:18.635Z,13.45
2023-02-13T19:16:45.480Z,13.35
2023-02-13T19:19:12.242Z,13.05
2023-02-13T19:21:39.675Z,13.55
2023-02-13T19:24:08.958Z,14.55
2023-02-13T19:26:36.698Z,13.93
2023-02-13T19:29:03.931Z,13.30
2023-02-13T19:31:32.473Z,15.43
2023-02-13T19:34:00.654Z,15.48
2023-02-13T19:36:29.159Z,14.73
2023-02-13T19:38:58.297Z,16.17
2023-02-13T19:41:25.153Z,17.75
2023-02-13T19:43:55.479Z,17.40
2023-02-13T19:46:28.624Z,17.73
2023-02-13T19:48:55.362Z,14.55
2023-02-13T19:51:42.009Z,14.35
2023-02-13T19:54:10.986Z,15.52
2023-02-13T19:56:39.536Z,15.45
2023-02-13T19:59:07.836Z,14.48
2023-02-13T20:01:34.760Z,15.35
2023-02-13T20:04:01.528Z,15.23
2023-02-13T20:06:35.002Z,15.50
2023-02-13T20:09:07.479Z,16.77
2023-02-13T20:11:34.208Z,16.52
2023-02-13T20:14:01.009Z,17.48
2023-02-13T20:16:32.751Z,17.60
2023-02-13T20:19:07.665Z,16.50
2023-02-13T20:21:35.286Z,17.92
2023-02-13T20:24:05.026Z,18.38
2023-02-13T20:26:32.084Z,18.67
2023-02-13T20:28:59.673Z,20.17
2023-02-13T20:31:27.350Z,18.60
2023-02-13T20:33:58.058Z,18.27
2023-02-13T20:36:27.584Z,18.25
2023-02-13T20:38:56.669Z,20.48
2023-02-13T20:41:26.271Z,19.60
2023-02-13T20:43:56.767Z,19.63
2023-02-13T20:46:29.191Z,19.15
2023-02-13T20:48:55.870Z,19.42
2023-02-13T20:51:22.471Z,18.77
2023-02-13T20:53:49.211Z,19.77
2023-02-13T20:56:19.271Z,19.23
2023-02-13T20:58:48.286Z,17.88
2023-02-13T21:01:35.381Z,19.05
2023-02-13T21:04:02.502Z,19.52
2023-02-13T21:06:31.937Z,19.80
2023-02-13T21:08:59.145Z,20.15
2023-02-13T21:11:28.158Z,19.10
2023-02-13T21:13:59.085Z,19.90
2023-02-13T21:16:28.935Z,19.85
2023-02-13T21:18:58.376Z,18.88
2023-02-13T21:21:33.584Z,18.00
2023-02-13T21:24:07.943Z,19.33
2023-02-13T21:26:35.607Z,21.40
2023-02-13T21:29:02.674Z,19.45
2023-02-13T21:31:32.487Z,18.60
2023-02-13T21:34:08.694Z,19.80
2023-02-13T21:36:36.374Z,19.05
2023-02-13T21:39:11.664Z,19.05
2023-02-13T21:41:42.818Z,19.67
2023-02-13T21:44:14.089Z,18.38
2023-02-13T21:46:41.873Z,12.02
2023-02-13T21:49:12.684Z,17.58
2023-02-13T21:51:39.497Z,16.77
2023-02-13T21:54:06.495Z,16.52
2023-02-13T21:56:36.182Z,17.35
2023-02-13T21:59:04.115Z,16.58
2023-02-13T22:01:45.297Z,15.23
2023-02-13T22:04:17.066Z,15.23
2023-02-13T22:06:48.089Z,16.52
2023-02-13T22:09:16.077Z,17.70
2023-02-13T22:11:43.229Z,17.98
2023-02-13T22:14:17.034Z,14.63
2023-02-13T22:16:44.988Z,17.25
2023-02-13T22:19:14.755Z,17.48
2023-02-13T22:21:56.586Z,16.50
2023-02-13T22:24:23.297Z,17.25
2023-02-13T22:26:49.934Z,20.92
2023-02-13T22:29:18.491Z,22.52
2023-02-13T22:31:45.607Z,22.30
2023-02-13T22:34:25.063Z,22.40
2023-02-13T22:36:51.701Z,19.00
2023-02-13T22:39:18.483Z,16.27
2023-02-13T22:41:48.255Z,13.15
2023-02-13T22:44:14.985Z,14.93
2023-02-13T22:46:41.725Z,13.88
2023-02-13T22:49:08.421Z,13.95
2023-02-13T22:51:36.276Z,13.75
2023-02-13T22:54:11.492Z,16.90
2023-02-13T22:56:38.217Z,16.90
2023-02-13T22:59:04.906Z,16.40
2023-02-13T23:01:31.701Z,16.75
2023-02-13T23:03:58.732Z,18.98
2023-02-13T23:06:25.694Z,17.40
2023-02-13T23:08:54.447Z,16.75
2023-02-13T23:11:43.280Z,17.05
2023-02-13T23:14:10.550Z,15.90
2023-02-13T23:17:00.191Z,16.77
2023-02-13T23:19:27.453Z,17.13
2023-02-13T23:21:54.546Z,16.77
2023-02-13T23:24:21.498Z,16.88
2023-02-13T23:26:48.142Z,24.42
2023-02-13T23:29:14.905Z,24.00
2023-02-13T23:31:41.849Z,36.28
2023-02-13T23:34:08.921Z,23.52
2023-02-13T23:36:35.636Z,22.38
2023-02-13T23:39:02.543Z,29.25
2023-02-13T23:41:32.281Z,24.85
2023-02-13T23:43:58.929Z,12.13
2023-02-13T23:46:25.776Z,12.80
2023-02-13T23:48:52.539Z,11.63
2023-02-13T23:51:21.203Z,9.73
2023-02-13T23:53:47.851Z,8.75
2023-02-13T23:56:14.872Z,7.80
2023-02-13T23:58:41.574Z,8.88
